Time;durP1;ratioP1;P1;durP2;ratioP2;P2;SDS_P1;SDS_P2;PMS_P1;PMS_P2;Temp;Humidity;BMP_temperature;BMP_pressure;BME280_temperature;BME280_humidity;BME280_pressure;Samples;Min_cycle;Max_cycle;Signal;HPM_P1;HPM_P2
2022/05/07 00:01:49;;;;;;;;;;;;;;;4.42;94.93;100462.81;5054781;28;888;-54
2022/05/07 00:04:16;;;;;;;;;;;;;;;4.40;95.33;100467.84;5054736;28;910;-55
2022/05/07 00:06:42;;;;;;;;;;;;;;;4.40;95.37;100460.44;5054645;28;862;-55
2022/05/07 00:09:09;;;;;;;;;;;;;;;4.43;95.37;100456.19;5055021;28;819;-54
2022/05/07 00:11:36;;;;;;;;;;;;;;;4.52;95.60;100445.91;5054417;28;921;-55
2022/05/07 00:14:02;;;;;;;;;;;;;;;4.73;95.98;100445.75;5054611;28;874;-55
2022/05/07 00:19:14;;;;;;;;;;;;;;;4.75;94.92;100445.41;5054682;28;688;-54
2022/05/07 00:21:41;;;;;;;;;;;;;;;4.75;95.09;100439.94;5054532;28;845;-54
2022/05/07 00:24:08;;;;;;;;;;;;;;;4.98;94.67;100445.66;5054450;28;885;-55
2022/05/07 00:26:35;;;;;;;;;;;;;;;4.99;93.65;100439.03;5054514;28;1209;-55
2022/05/07 00:29:01;;;;;;;;;;;;;;;4.80;93.53;100442.41;5054424;28;838;-54
2022/05/07 00:31:28;;;;;;;;;;;;;;;4.61;93.70;100448.50;5054553;28;883;-53
2022/05/07 00:33:54;;;;;;;;;;;;;;;4.40;94.26;100445.94;5036772;28;676;-52
2022/05/07 00:36:21;;;;;;;;;;;;;;;4.25;94.64;100453.72;5054897;28;1969;-52
2022/05/07 00:38:47;;;;;;;;;;;;;;;4.30;95.10;100449.94;5054428;28;905;-54
2022/05/07 00:41:14;;;;;;;;;;;;;;;4.40;94.09;100452.22;5054265;28;886;-54
2022/05/07 00:43:41;;;;;;;;;;;;;;;4.63;93.67;100441.56;5054012;28;822;-54
2022/05/07 00:46:06;;;;;;;;;;;;;;;4.69;92.93;100444.84;5053982;28;858;-51
2022/05/07 00:48:33;;;;;;;;;;;;;;;4.50;92.30;100439.97;5054176;28;814;-55
2022/05/07 00:53:46;;;;;;;;;;;;;;;3.95;92.04;100444.16;5054185;28;629;-50
2022/05/07 00:56:13;;;;;;;;;;;;;;;3.75;93.18;100434.91;5053575;28;1937;-54
2022/05/07 00:58:40;;;;;;;;;;;;;;;3.73;93.58;100435.25;5053638;28;907;-55
2022/05/07 01:01:07;;;;;;;;;;;;;;;4.10;95.74;100438.00;5053511;28;889;-55
2022/05/07 01:03:35;;;;;;;;;;;;;;;4.51;96.30;100427.91;5053629;28;915;-54
2022/05/07 01:06:01;;;;;;;;;;;;;;;4.78;95.32;100428.25;5053493;28;946;-55
2022/05/07 01:08:29;;;;;;;;;;;;;;;4.77;93.76;100424.72;5053537;28;1055;-54
2022/05/07 01:10:56;;;;;;;;;;;;;;;4.53;92.98;100422.88;5053307;28;1136;-55
2022/05/07 01:13:23;;;;;;;;;;;;;;;4.29;93.58;100421.00;5053654;28;850;-54
2022/05/07 01:15:53;;;;;;;;;;;;;;;4.11;94.14;100419.66;5053362;28;1882;-55
2022/05/07 01:18:21;;;;;;;;;;;;;;;4.05;95.47;100428.09;5053353;28;830;-55
2022/05/07 01:20:48;;;;;;;;;;;;;;;4.08;95.15;100432.06;5053985;28;855;-54
2022/05/07 01:23:15;;;;;;;;;;;;;;;4.06;95.12;100428.88;5053286;28;877;-54
2022/05/07 01:25:41;;;;;;;;;;;;;;;4.00;94.49;100433.00;5053745;28;1046;-54
2022/05/07 01:28:08;;;;;;;;;;;;;;;3.99;94.45;100432.19;5052906;28;1284;-55
2022/05/07 01:30:38;;;;;;;;;;;;;;;4.01;94.04;100424.44;5053117;28;957;-55
2022/05/07 01:33:05;;;;;;;;;;;;;;;3.95;93.13;100425.00;5053217;28;917;-54
2022/05/07 01:35:31;;;;;;;;;;;;;;;3.97;93.27;100412.59;5053056;28;1971;-55
2022/05/07 01:37:58;;;;;;;;;;;;;;;4.04;92.97;100418.28;5053229;28;958;-55
2022/05/07 01:40:24;;;;;;;;;;;;;;;4.10;92.61;100418.84;5053658;28;868;-55
2022/05/07 01:42:51;;;;;;;;;;;;;;;4.06;91.96;100418.72;5053168;28;925;-55
2022/05/07 01:45:19;;;;;;;;;;;;;;;4.07;91.95;100411.31;5053328;28;759;-55
2022/05/07 01:50:31;;;;;;;;;;;;;;;3.92;90.68;100409.28;5052780;28;676;-53
2022/05/07 01:52:57;;;;;;;;;;;;;;;3.99;91.60;100404.03;5052670;28;897;-53
2022/05/07 01:55:24;;;;;;;;;;;;;;;4.06;90.38;100404.25;5052788;28;1955;-55
2022/05/07 01:57:52;;;;;;;;;;;;;;;3.90;89.93;100404.16;5052640;28;834;-55
2022/05/07 02:00:18;;;;;;;;;;;;;;;3.63;89.65;100403.69;5052418;28;1035;-56
2022/05/07 02:02:45;;;;;;;;;;;;;;;3.40;90.30;100402.53;5052264;28;811;-55
2022/05/07 02:05:12;;;;;;;;;;;;;;;3.26;90.61;100400.09;5052480;28;861;-55
2022/05/07 02:07:39;;;;;;;;;;;;;;;3.17;90.90;100404.88;5052605;28;811;-54
2022/05/07 02:10:06;;;;;;;;;;;;;;;3.08;90.17;100401.44;5052301;28;842;-52
2022/05/07 02:12:33;;;;;;;;;;;;;;;2.90;90.49;100407.06;5052366;28;803;-54
2022/05/07 02:14:59;;;;;;;;;;;;;;;2.72;90.22;100397.44;5052287;28;818;-54
2022/05/07 02:17:25;;;;;;;;;;;;;;;2.57;90.98;100398.84;5052257;28;2226;-54
2022/05/07 02:19:52;;;;;;;;;;;;;;;2.50;91.19;100393.13;5052176;28;842;-51
2022/05/07 02:22:18;;;;;;;;;;;;;;;2.44;91.36;100400.72;5052009;28;929;-54
2022/05/07 02:24:46;;;;;;;;;;;;;;;2.34;90.99;100387.47;5052401;28;1018;-52
2022/05/07 02:27:12;;;;;;;;;;;;;;;2.31;91.81;100388.16;5051827;28;1386;-54
2022/05/07 02:29:39;;;;;;;;;;;;;;;2.37;92.99;100386.78;5052056;28;881;-54
2022/05/07 02:32:06;;;;;;;;;;;;;;;2.38;92.50;100383.75;5051963;28;819;-54
2022/05/07 02:34:34;;;;;;;;;;;;;;;2.38;93.27;100389.19;5051899;28;906;-55
2022/05/07 02:37:02;;;;;;;;;;;;;;;2.40;92.99;100395.13;5051826;28;1967;-54
2022/05/07 02:39:29;;;;;;;;;;;;;;;2.43;93.77;100386.28;5051860;28;882;-54
2022/05/07 02:44:40;;;;;;;;;;;;;;;2.72;94.87;100392.00;5052073;28;672;-54
2022/05/07 02:47:06;;;;;;;;;;;;;;;2.83;94.47;100395.88;5051796;28;850;-53
2022/05/07 02:49:33;;;;;;;;;;;;;;;2.91;94.27;100402.41;5051710;28;869;-54
2022/05/07 02:52:00;;;;;;;;;;;;;;;2.92;94.80;100391.13;5051766;28;822;-54
2022/05/07 02:54:27;;;;;;;;;;;;;;;2.98;93.93;100397.97;5051954;28;822;-54
2022/05/07 02:56:56;;;;;;;;;;;;;;;3.04;93.80;100391.19;5051771;28;1949;-54
2022/05/07 02:59:23;;;;;;;;;;;;;;;2.96;93.39;100392.06;5051544;28;856;-53
2022/05/07 03:01:51;;;;;;;;;;;;;;;2.90;93.23;100387.94;5051717;28;863;-53
2022/05/07 03:04:19;;;;;;;;;;;;;;;2.93;92.66;100398.22;5033785;28;898;-54
2022/05/07 03:06:45;;;;;;;;;;;;;;;2.93;92.31;100394.69;5051386;28;949;-53
2022/05/07 03:09:12;;;;;;;;;;;;;;;2.89;92.21;100396.50;5051396;28;886;-55
2022/05/07 03:11:39;;;;;;;;;;;;;;;2.84;91.75;100400.22;5051458;28;802;-54
2022/05/07 03:14:06;;;;;;;;;;;;;;;2.88;91.90;100397.59;5050538;28;841;-54
2022/05/07 03:16:35;;;;;;;;;;;;;;;3.02;91.00;100396.19;5051291;28;1881;-53
2022/05/07 03:19:02;;;;;;;;;;;;;;;3.14;90.05;100394.63;5051409;28;826;-52
2022/05/07 03:21:29;;;;;;;;;;;;;;;3.31;89.18;100396.34;5051254;28;899;-52
2022/05/07 03:23:56;;;;;;;;;;;;;;;3.44;87.75;100392.53;5051333;28;814;-52
2022/05/07 03:26:23;;;;;;;;;;;;;;;3.53;87.81;100395.16;5051311;28;1404;-54
2022/05/07 03:28:50;;;;;;;;;;;;;;;3.53;87.07;100393.22;5051226;28;918;-55
2022/05/07 03:31:19;;;;;;;;;;;;;;;3.53;87.65;100393.22;5051214;28;928;-56
2022/05/07 03:33:46;;;;;;;;;;;;;;;3.57;87.74;100396.06;5033391;28;854;-55
2022/05/07 03:36:16;;;;;;;;;;;;;;;3.59;86.92;100399.25;5051082;28;1914;-54
2022/05/07 03:38:43;;;;;;;;;;;;;;;3.56;86.96;100406.19;5051329;28;874;-52
2022/05/07 03:41:10;;;;;;;;;;;;;;;3.55;87.41;100409.28;5051436;28;967;-55
2022/05/07 03:43:37;;;;;;;;;;;;;;;3.63;87.48;100416.59;5051381;28;787;-52
2022/05/07 03:46:04;;;;;;;;;;;;;;;3.79;87.51;100425.69;5051360;28;877;-54
2022/05/07 03:48:31;;;;;;;;;;;;;;;3.96;86.87;100423.88;5051284;28;894;-54
2022/05/07 03:50:58;;;;;;;;;;;;;;;4.12;85.85;100421.22;5051370;28;867;-55
2022/05/07 03:53:30;;;;;;;;;;;;;;;4.28;85.81;100414.69;5051231;28;822;-55
2022/05/07 03:56:00;;;;;;;;;;;;;;;4.41;85.38;100417.44;5050974;28;1947;-52
2022/05/07 03:58:27;;;;;;;;;;;;;;;4.54;85.41;100421.72;5051063;28;806;-54
2022/05/07 04:00:54;;;;;;;;;;;;;;;4.75;85.02;100427.03;5050999;28;823;-53
2022/05/07 04:03:22;;;;;;;;;;;;;;;4.98;84.48;100421.81;5050995;28;794;-54
2022/05/07 04:05:49;;;;;;;;;;;;;;;5.27;83.68;100428.84;5050995;28;854;-55
2022/05/07 04:08:16;;;;;;;;;;;;;;;5.63;81.85;100420.72;5050786;28;889;-55
2022/05/07 04:10:43;;;;;;;;;;;;;;;5.90;81.16;100427.28;5050857;28;811;-55
2022/05/07 04:13:11;;;;;;;;;;;;;;;6.11;81.07;100433.28;5050872;28;857;-54
2022/05/07 04:15:38;;;;;;;;;;;;;;;6.27;81.67;100436.03;5050681;28;1886;-54
2022/05/07 04:18:09;;;;;;;;;;;;;;;6.36;82.37;100437.75;5050945;28;794;-54
2022/05/07 04:20:36;;;;;;;;;;;;;;;6.44;83.63;100437.56;5050847;28;811;-54
2022/05/07 04:23:03;;;;;;;;;;;;;;;6.51;83.46;100439.69;5050692;28;917;-55
2022/05/07 04:25:30;;;;;;;;;;;;;;;6.59;83.29;100435.13;5053812;28;1009;-55
2022/05/07 04:27:58;;;;;;;;;;;;;;;6.65;82.54;100442.72;5054090;28;1244;-55
2022/05/07 04:30:25;;;;;;;;;;;;;;;6.79;83.10;100438.69;5054284;28;877;-55
2022/05/07 04:32:51;;;;;;;;;;;;;;;6.96;82.85;100435.50;5054286;28;823;-54
2022/05/07 04:35:18;;;;;;;;;;;;;;;7.14;81.17;100428.38;5054115;28;933;-54
2022/05/07 04:37:45;;;;;;;;;;;;;;;7.31;81.01;100442.84;5054027;28;1914;-53
2022/05/07 04:40:12;;;;;;;;;;;;;;;7.45;80.50;100437.59;5054025;28;863;-53
2022/05/07 04:42:39;;;;;;;;;;;;;;;7.60;80.52;100443.38;5054100;28;806;-51
2022/05/07 04:45:06;;;;;;;;;;;;;;;7.75;80.06;100450.69;5053912;28;830;-54
2022/05/07 04:47:32;;;;;;;;;;;;;;;7.89;79.87;100447.38;5053909;28;1147;-54
2022/05/07 04:49:59;;;;;;;;;;;;;;;8.03;79.74;100455.88;5053883;28;898;-54
2022/05/07 04:52:26;;;;;;;;;;;;;;;8.18;78.52;100456.88;5053934;28;827;-53
2022/05/07 04:54:53;;;;;;;;;;;;;;;8.32;78.69;100454.34;5053805;28;884;-51
2022/05/07 04:57:20;;;;;;;;;;;;;;;8.48;79.04;100454.19;5053660;28;1949;-53
2022/05/07 04:59:47;;;;;;;;;;;;;;;8.65;78.48;100460.34;5053931;28;973;-52
2022/05/07 05:02:13;;;;;;;;;;;;;;;8.75;78.64;100457.72;5053697;28;799;-53
2022/05/07 05:04:40;;;;;;;;;;;;;;;8.87;78.77;100464.94;5035995;28;807;-54
2022/05/07 05:07:07;;;;;;;;;;;;;;;9.22;78.31;100462.97;5053866;28;838;-52
2022/05/07 05:09:34;;;;;;;;;;;;;;;9.84;77.13;100457.69;5053578;28;865;-51
2022/05/07 05:12:00;;;;;;;;;;;;;;;10.56;74.88;100466.50;5053536;28;835;-53
2022/05/07 05:17:11;;;;;;;;;;;;;;;12.05;70.08;100465.38;5053389;28;1945;-54
2022/05/07 05:19:38;;;;;;;;;;;;;;;12.57;67.53;100464.13;5053349;28;838;-54
2022/05/07 05:22:04;;;;;;;;;;;;;;;12.68;66.51;100462.09;5053362;28;889;-53
2022/05/07 05:24:31;;;;;;;;;;;;;;;12.70;66.65;100465.25;5053374;28;818;-53
2022/05/07 05:26:58;;;;;;;;;;;;;;;12.68;65.91;100461.31;5052945;28;1197;-55
2022/05/07 05:29:24;;;;;;;;;;;;;;;12.79;65.25;100465.63;5053288;28;870;-51
2022/05/07 05:31:51;;;;;;;;;;;;;;;12.83;63.85;100460.06;5053151;28;830;-52
2022/05/07 05:34:18;;;;;;;;;;;;;;;12.75;63.02;100452.97;5053095;28;934;-52
2022/05/07 05:36:45;;;;;;;;;;;;;;;12.95;62.24;100456.03;5051910;28;1906;-53
2022/05/07 05:39:11;;;;;;;;;;;;;;;13.79;60.06;100457.97;5052958;28;815;-54
2022/05/07 05:41:41;;;;;;;;;;;;;;;15.48;56.56;100454.94;5053032;28;857;-51
2022/05/07 05:44:07;;;;;;;;;;;;;;;17.01;51.24;100444.31;5052779;28;898;-54
2022/05/07 05:46:35;;;;;;;;;;;;;;;17.59;49.05;100451.44;5052903;28;893;-54
2022/05/07 05:49:01;;;;;;;;;;;;;;;18.46;46.37;100448.84;5052787;28;902;-54
2022/05/07 05:51:27;;;;;;;;;;;;;;;19.13;45.01;100453.00;5052791;28;953;-54
2022/05/07 05:53:54;;;;;;;;;;;;;;;20.09;41.78;100459.63;5052623;28;869;-55
2022/05/07 05:56:20;;;;;;;;;;;;;;;20.40;40.95;100462.56;5034931;28;1890;-54
2022/05/07 05:58:47;;;;;;;;;;;;;;;20.31;40.69;100462.47;5034806;28;1483;-54
2022/05/07 06:01:14;;;;;;;;;;;;;;;20.30;41.22;100463.72;5052590;28;815;-51
2022/05/07 06:03:41;;;;;;;;;;;;;;;20.67;39.90;100455.63;5052538;28;869;-51
2022/05/07 06:06:08;;;;;;;;;;;;;;;21.02;39.17;100456.34;5052500;28;819;-51
2022/05/07 06:08:34;;;;;;;;;;;;;;;21.29;39.12;100449.28;5052546;28;814;-55
2022/05/07 06:11:02;;;;;;;;;;;;;;;21.69;38.61;100454.19;5052447;28;823;-56
2022/05/07 06:13:31;;;;;;;;;;;;;;;22.15;37.73;100449.44;5052326;28;894;-54
2022/05/07 06:15:57;;;;;;;;;;;;;;;22.11;36.90;100448.81;5052174;28;1881;-54
2022/05/07 06:18:25;;;;;;;;;;;;;;;21.95;37.36;100454.72;5052278;28;1031;-55
2022/05/07 06:20:52;;;;;;;;;;;;;;;21.71;37.84;100460.91;5052110;28;865;-54
2022/05/07 06:23:19;;;;;;;;;;;;;;;21.87;38.31;100461.88;5052132;28;915;-54
2022/05/07 06:28:31;;;;;;;;;;;;;;;22.08;37.22;100463.03;5052128;28;931;-53
2022/05/07 06:30:59;;;;;;;;;;;;;;;22.03;35.96;100465.19;5052038;28;884;-54
2022/05/07 06:33:28;;;;;;;;;;;;;;;22.17;37.01;100465.88;5052037;28;807;-54
2022/05/07 06:35:55;;;;;;;;;;;;;;;22.24;36.93;100459.97;5051704;28;1910;-55
2022/05/07 06:38:22;;;;;;;;;;;;;;;22.56;37.17;100471.88;5051828;28;949;-55
2022/05/07 06:40:50;;;;;;;;;;;;;;;22.47;37.13;100467.03;5051740;28;923;-55
2022/05/07 06:43:17;;;;;;;;;;;;;;;22.97;37.30;100473.22;5051694;28;938;-54
2022/05/07 06:45:46;;;;;;;;;;;;;;;23.22;36.47;100469.28;5051828;28;815;-55
2022/05/07 06:48:12;;;;;;;;;;;;;;;23.57;34.63;100462.41;5051613;28;824;-56
2022/05/07 06:50:39;;;;;;;;;;;;;;;23.35;34.86;100465.50;5033847;28;861;-55
2022/05/07 06:53:05;;;;;;;;;;;;;;;23.44;33.42;100466.22;5051536;28;957;-55
2022/05/07 06:55:33;;;;;;;;;;;;;;;23.48;31.91;100468.13;5051693;28;1953;-55
2022/05/07 06:57:59;;;;;;;;;;;;;;;23.53;32.09;100476.69;5051502;28;854;-55
2022/05/07 07:00:26;;;;;;;;;;;;;;;23.96;31.98;100473.84;5051724;28;850;-55
2022/05/07 07:02:52;;;;;;;;;;;;;;;23.99;30.87;100468.03;5051741;28;942;-55
2022/05/07 07:05:20;;;;;;;;;;;;;;;24.10;30.98;100480.84;5051468;28;865;-55
2022/05/07 07:07:47;;;;;;;;;;;;;;;24.09;30.81;100468.78;5051437;28;947;-55
2022/05/07 07:10:14;;;;;;;;;;;;;;;23.90;31.36;100468.09;5051483;28;814;-55
2022/05/07 07:12:41;;;;;;;;;;;;;;;24.06;32.09;100475.38;5051538;28;826;-52
2022/05/07 07:15:08;;;;;;;;;;;;;;;23.75;31.75;100470.03;5051412;28;890;-55
2022/05/07 07:17:35;;;;;;;;;;;;;;;23.46;31.66;100474.22;5051269;28;1958;-55
2022/05/07 07:20:02;;;;;;;;;;;;;;;23.36;30.31;100467.81;5051370;28;806;-53
2022/05/07 07:22:28;;;;;;;;;;;;;;;23.37;31.12;100466.56;5033640;28;938;-54
2022/05/07 07:24:55;;;;;;;;;;;;;;;23.28;30.80;100472.25;5051332;28;956;-56
2022/05/07 07:27:22;;;;;;;;;;;;;;;23.35;29.93;100469.09;5050626;28;1231;-54
2022/05/07 07:29:49;;;;;;;;;;;;;;;23.58;31.54;100478.09;5050400;28;858;-54
2022/05/07 07:32:16;;;;;;;;;;;;;;;23.83;30.87;100474.88;5050481;28;889;-54
2022/05/07 07:34:43;;;;;;;;;;;;;;;24.10;31.66;100483.66;5050254;28;969;-53
2022/05/07 07:37:10;;;;;;;;;;;;;;;24.35;30.52;100471.09;5050184;28;1910;-54
2022/05/07 07:39:37;;;;;;;;;;;;;;;24.13;29.17;100477.84;5050410;28;854;-54
2022/05/07 07:42:03;;;;;;;;;;;;;;;24.22;28.98;100477.00;5050201;28;830;-52
2022/05/07 07:44:30;;;;;;;;;;;;;;;24.73;30.23;100483.66;5050362;28;849;-55
2022/05/07 07:49:43;;;;;;;;;;;;;;;24.21;29.35;100473.38;5050285;28;621;-56
2022/05/07 07:52:10;;;;;;;;;;;;;;;23.63;28.54;100478.22;5050229;28;826;-56
2022/05/07 07:54:36;;;;;;;;;;;;;;;23.77;29.79;100485.25;5050168;28;874;-54
2022/05/07 07:57:03;;;;;;;;;;;;;;;23.92;29.19;100488.16;5049974;28;1882;-55
2022/05/07 07:59:30;;;;;;;;;;;;;;;23.92;29.70;100487.34;5051198;28;879;-55
2022/05/07 08:01:57;;;;;;;;;;;;;;;23.67;30.18;100488.56;5053946;28;795;-55
2022/05/07 08:04:27;;;;;;;;;;;;;;;24.07;29.06;100482.59;5053604;28;862;-55
2022/05/07 08:12:25;;;;;;;;;;;;;;;24.37;27.55;100488.34;5054399;28;653;-53
2022/05/07 08:14:52;;;;;;;;;;;;;;;24.68;26.11;100485.13;5053552;28;862;-55
2022/05/07 08:17:18;;;;;;;;;;;;;;;25.13;25.26;100485.94;5053418;28;1980;-51
2022/05/07 08:19:45;;;;;;;;;;;;;;;25.35;26.10;100487.63;5053654;28;894;-54
2022/05/07 08:22:11;;;;;;;;;;;;;;;24.85;28.21;100491.09;5053321;28;866;-55
2022/05/07 08:24:38;;;;;;;;;;;;;;;24.13;28.86;100488.34;5035320;28;958;-55
2022/05/07 08:27:06;;;;;;;;;;;;;;;22.94;28.50;100498.78;4923851;28;3716256;-54
2022/05/07 08:29:32;;;;;;;;;;;;;;;22.94;29.50;100491.09;5054669;28;819;-55
2022/05/07 08:31:59;;;;;;;;;;;;;;;24.07;30.12;100491.06;5054426;28;946;-55
2022/05/07 08:34:26;;;;;;;;;;;;;;;24.40;30.03;100498.66;5054456;28;890;-55
2022/05/07 08:36:53;;;;;;;;;;;;;;;24.06;30.20;100503.59;5054267;28;1914;-54
2022/05/07 08:39:19;;;;;;;;;;;;;;;23.65;31.89;100500.31;5054113;28;890;-53
2022/05/07 08:41:46;;;;;;;;;;;;;;;23.83;31.02;100494.63;5054126;28;854;-54
2022/05/07 08:44:12;;;;;;;;;;;;;;;24.29;31.01;100496.41;5054075;28;855;-52
2022/05/07 08:46:39;;;;;;;;;;;;;;;24.58;30.28;100494.94;5054036;28;818;-54
2022/05/07 08:49:06;;;;;;;;;;;;;;;24.80;28.62;100498.22;5053997;28;830;-54
2022/05/07 08:51:34;;;;;;;;;;;;;;;24.18;28.45;100496.16;5053921;28;814;-55
2022/05/07 08:54:01;;;;;;;;;;;;;;;23.15;30.94;100497.03;5053840;28;929;-54
2022/05/07 08:56:27;;;;;;;;;;;;;;;23.26;29.75;100477.59;5053996;28;1977;-54
2022/05/07 08:58:55;;;;;;;;;;;;;;;23.55;29.44;100471.34;5053679;28;907;-53
2022/05/07 09:01:23;;;;;;;;;;;;;;;23.79;29.24;100481.94;5053683;28;921;-54
2022/05/07 09:03:49;;;;;;;;;;;;;;;23.92;29.63;100484.53;5053631;28;889;-55
2022/05/07 09:06:16;;;;;;;;;;;;;;;23.22;31.76;100474.94;5053687;28;841;-55
2022/05/07 09:11:45;;;;;;;;;;;;;;;23.07;30.57;100474.03;5053499;28;669;-54
2022/05/07 09:14:11;;;;;;;;;;;;;;;23.09;33.31;100463.06;5053423;28;886;-54
2022/05/07 09:16:42;;;;;;;;;;;;;;;23.06;33.13;100443.47;5053421;28;1961;-54
2022/05/07 09:22:11;;;;;;;;;;;;;;;22.28;32.11;100466.22;5053461;28;688;-52
2022/05/07 09:24:37;;;;;;;;;;;;;;;22.33;31.54;100457.13;5053197;28;1129;-51
2022/05/07 09:27:04;;;;;;;;;;;;;;;22.26;32.56;100462.31;5053166;28;1391;-52
2022/05/07 09:41:43;;;;;;;;;;;;;;;20.85;32.55;100464.19;5053087;28;629;-56
2022/05/07 09:44:12;;;;;;;;;;;;;;;20.82;31.49;100459.47;5053103;28;913;-51
2022/05/07 09:46:40;;;;;;;;;;;;;;;21.02;32.01;100456.34;5052846;28;855;-51
2022/05/07 09:49:08;;;;;;;;;;;;;;;21.02;32.91;100453.53;5052744;28;887;-55
2022/05/07 09:51:34;;;;;;;;;;;;;;;21.21;31.34;100446.75;5052731;28;866;-55
2022/05/07 10:28:06;;;;;;;;;;;;;;;21.18;30.43;100422.38;5079853;23;1670;-55
2022/05/07 10:30:44;;;;;;;;;;;;;;;21.34;33.32;100418.56;5052176;28;842;-55
2022/05/07 10:33:10;;;;;;;;;;;;;;;21.60;29.87;100410.72;5052080;28;853;-55
2022/05/07 10:35:45;;;;;;;;;;;;;;;21.55;29.78;100410.53;5051999;28;830;-54
2022/05/07 10:38:12;;;;;;;;;;;;;;;21.54;30.28;100408.97;5052115;28;879;-55
2022/05/07 10:41:01;;;;;;;;;;;;;;;21.59;29.59;100413.97;5052349;28;822;-55
2022/05/07 10:43:28;;;;;;;;;;;;;;;21.48;29.05;100402.38;5051897;28;977;-55
2022/05/07 10:46:05;;;;;;;;;;;;;;;21.60;29.50;100407.13;5051786;28;885;-56
2022/05/07 10:48:48;;;;;;;;;;;;;;;21.43;27.40;100415.03;5051699;28;980;-55
2022/05/07 10:51:17;;;;;;;;;;;;;;;21.74;29.52;100416.97;5051915;28;913;-55
2022/05/07 10:53:44;;;;;;;;;;;;;;;21.87;27.95;100409.22;5051606;28;905;-55
2022/05/07 10:56:16;;;;;;;;;;;;;;;21.89;29.92;100420.78;5051473;28;1906;-56
2022/05/07 10:58:48;;;;;;;;;;;;;;;22.16;27.53;100411.56;5051633;28;849;-54
2022/05/07 11:01:15;;;;;;;;;;;;;;;22.60;28.17;100402.06;5051705;28;854;-54
2022/05/07 11:03:42;;;;;;;;;;;;;;;22.57;28.50;100409.41;5051596;28;874;-55
2022/05/07 11:06:09;;;;;;;;;;;;;;;22.16;28.75;100402.34;5051616;28;1129;-54
2022/05/07 11:08:45;;;;;;;;;;;;;;;22.46;28.68;100400.66;5051475;28;906;-56
2022/05/07 11:11:14;;;;;;;;;;;;;;;22.41;28.13;100396.44;5051469;28;822;-56
2022/05/07 11:13:49;;;;;;;;;;;;;;;22.57;28.93;100397.34;5051383;28;933;-56
2022/05/07 11:25:45;;;;;;;;;;;;;;;23.31;27.48;100395.16;5051511;28;1142;-56
2022/05/07 11:28:28;;;;;;;;;;;;;;;22.58;26.40;100385.63;5008873;28;1382;-56
2022/05/07 11:30:57;;;;;;;;;;;;;;;22.38;27.07;100396.59;5009659;28;884;-56
2022/05/07 11:33:24;;;;;;;;;;;;;;;22.37;27.56;100384.56;5009708;28;831;-56
2022/05/07 11:36:06;;;;;;;;;;;;;;;22.55;29.48;100388.59;5013140;28;1910;-55
2022/05/07 11:38:36;;;;;;;;;;;;;;;21.93;28.63;100387.63;5013439;28;1229;-56
2022/05/07 11:41:12;;;;;;;;;;;;;;;21.33;28.66;100388.09;5013805;28;815;-55
2022/05/07 11:46:26;;;;;;;;;;;;;;;21.79;29.99;100396.69;5014039;28;970;-54
2022/05/07 11:48:53;;;;;;;;;;;;;;;22.25;28.92;100387.53;5013651;28;869;-55
2022/05/07 12:03:31;;;;;;;;;;;;;;;22.98;27.17;100378.16;5013156;28;685;-56
2022/05/07 12:05:58;;;;;;;;;;;;;;;22.82;28.42;100377.28;5024278;28;911;-56
2022/05/07 12:08:31;;;;;;;;;;;;;;;22.41;28.17;100379.53;5034800;28;830;-56
2022/05/07 12:10:58;;;;;;;;;;;;;;;22.27;29.47;100376.59;5034713;28;1004;-56
2022/05/07 12:13:25;;;;;;;;;;;;;;;22.82;27.59;100379.31;5034764;28;909;-55
2022/05/07 12:31:05;;;;;;;;;;;;;;;23.00;27.54;100376.47;5054466;28;613;-55
2022/05/07 12:33:33;;;;;;;;;;;;;;;22.80;29.38;100370.56;5054337;28;861;-54
2022/05/07 12:35:58;;;;;;;;;;;;;;;23.04;28.80;100365.03;5054175;28;1975;-56
2022/05/07 12:38:25;;;;;;;;;;;;;;;23.14;28.33;100383.47;5054213;28;865;-56
2022/05/07 12:40:52;;;;;;;;;;;;;;;23.14;27.82;100362.97;5054236;28;909;-56
2022/05/07 12:43:19;;;;;;;;;;;;;;;21.81;27.50;100372.47;5054124;28;807;-56
2022/05/07 12:45:45;;;;;;;;;;;;;;;21.13;29.19;100377.25;5053746;28;1159;-56
2022/05/07 12:48:12;;;;;;;;;;;;;;;21.46;29.44;100371.13;5054239;28;919;-55
2022/05/07 12:50:39;;;;;;;;;;;;;;;21.78;29.22;100373.38;5053882;28;893;-54
2022/05/07 12:53:06;;;;;;;;;;;;;;;21.69;28.70;100364.94;5053851;28;1159;-56
2022/05/07 12:55:32;;;;;;;;;;;;;;;21.74;29.89;100369.97;5053833;28;806;-56
2022/05/07 12:57:59;;;;;;;;;;;;;;;22.15;29.22;100362.16;5053811;28;1886;-55
2022/05/07 13:00:26;;;;;;;;;;;;;;;22.35;29.43;100356.09;5053744;28;854;-56
2022/05/07 13:02:55;;;;;;;;;;;;;;;22.68;29.23;100363.88;5053766;28;794;-55
2022/05/07 13:05:22;;;;;;;;;;;;;;;22.81;27.43;100346.78;5053555;28;1513;-55
2022/05/07 13:07:49;;;;;;;;;;;;;;;23.08;28.10;100347.94;5053603;28;890;-56
2022/05/07 13:10:16;;;;;;;;;;;;;;;23.27;28.44;100349.41;5053594;28;866;-56
2022/05/07 13:12:46;;;;;;;;;;;;;;;23.21;27.90;100348.50;5053596;28;869;-56
2022/05/07 13:15:12;;;;;;;;;;;;;;;22.42;28.31;100350.16;5053433;28;934;-56
2022/05/07 13:17:38;;;;;;;;;;;;;;;21.41;28.90;100350.00;5053680;28;1935;-56
2022/05/07 13:20:05;;;;;;;;;;;;;;;21.37;30.37;100344.53;5053752;28;894;-55
2022/05/07 13:22:32;;;;;;;;;;;;;;;21.53;29.81;100339.91;5053295;28;811;-56
2022/05/07 13:24:59;;;;;;;;;;;;;;;21.40;29.34;100340.00;5053345;28;1041;-56
2022/05/07 13:27:26;;;;;;;;;;;;;;;20.92;30.06;100340.28;5053091;28;1229;-56
2022/05/07 13:29:53;;;;;;;;;;;;;;;20.57;30.60;100334.81;5053160;28;922;-55
2022/05/07 13:32:22;;;;;;;;;;;;;;;19.94;31.42;100341.47;5053202;28;838;-55
2022/05/07 13:34:48;;;;;;;;;;;;;;;19.55;31.99;100337.97;5053063;28;926;-55
2022/05/07 13:37:16;;;;;;;;;;;;;;;19.31;32.57;100346.75;5052968;28;1965;-54
2022/05/07 13:39:42;;;;;;;;;;;;;;;19.19;32.70;100355.94;5052999;28;878;-54
2022/05/07 13:42:11;;;;;;;;;;;;;;;19.18;32.75;100352.38;5052954;28;983;-54
2022/05/07 13:44:37;;;;;;;;;;;;;;;18.83;32.80;100361.88;5052865;28;961;-53
2022/05/07 13:47:06;;;;;;;;;;;;;;;18.72;33.65;100357.34;5052858;28;911;-55
2022/05/07 13:49:34;;;;;;;;;;;;;;;18.74;33.71;100362.50;5053086;28;902;-56
2022/05/07 13:52:00;;;;;;;;;;;;;;;18.50;33.61;100353.59;5052784;28;798;-56
2022/05/07 13:54:27;;;;;;;;;;;;;;;18.25;33.37;100349.47;5052631;28;866;-55
2022/05/07 13:56:54;;;;;;;;;;;;;;;18.12;34.37;100349.44;5051913;28;1948;-54
2022/05/07 13:59:22;;;;;;;;;;;;;;;18.12;33.96;100352.22;5052609;28;830;-55
2022/05/07 14:01:49;;;;;;;;;;;;;;;18.39;34.39;100347.50;5052573;28;882;-55
2022/05/07 14:04:15;;;;;;;;;;;;;;;18.65;33.80;100345.56;5052576;28;810;-56
2022/05/07 14:06:42;;;;;;;;;;;;;;;18.76;33.91;100340.44;5052580;28;826;-54
2022/05/07 14:09:09;;;;;;;;;;;;;;;18.92;33.07;100333.97;5052394;28;835;-55
2022/05/07 14:11:36;;;;;;;;;;;;;;;18.94;33.88;100335.09;5052491;28;909;-55
2022/05/07 14:14:03;;;;;;;;;;;;;;;18.90;32.95;100340.00;5052341;28;954;-56
2022/05/07 14:16:29;;;;;;;;;;;;;;;19.00;33.78;100342.94;5052285;28;2417;-54
2022/05/07 14:18:55;;;;;;;;;;;;;;;19.08;32.41;100339.47;5052373;28;870;-55
2022/05/07 14:21:23;;;;;;;;;;;;;;;18.93;32.44;100335.56;5034413;28;819;-55
2022/05/07 14:23:50;;;;;;;;;;;;;;;18.65;32.61;100331.56;5051990;28;906;-55
2022/05/07 14:26:16;;;;;;;;;;;;;;;18.46;33.52;100339.72;5052544;28;938;-55
2022/05/07 14:28:43;;;;;;;;;;;;;;;18.34;33.82;100346.81;5051948;28;1149;-55
2022/05/07 14:31:10;;;;;;;;;;;;;;;18.26;34.21;100339.06;5052084;28;826;-54
2022/05/07 14:33:37;;;;;;;;;;;;;;;18.27;33.71;100341.44;5052084;28;869;-54
2022/05/07 14:36:05;;;;;;;;;;;;;;;18.30;34.29;100334.94;5051897;28;1922;-55
2022/05/07 14:38:31;;;;;;;;;;;;;;;18.30;33.88;100346.13;5051903;28;901;-55
2022/05/07 14:40:58;;;;;;;;;;;;;;;18.50;33.55;100346.00;5052024;28;895;-54
2022/05/07 14:43:25;;;;;;;;;;;;;;;18.83;33.56;100350.66;5051919;28;838;-54
2022/05/07 14:45:51;;;;;;;;;;;;;;;18.74;33.39;100337.31;5051864;28;799;-54
2022/05/07 14:48:18;;;;;;;;;;;;;;;18.51;34.14;100343.97;5051774;28;850;-56
2022/05/07 14:50:45;;;;;;;;;;;;;;;18.29;34.07;100343.81;5051859;28;810;-54
2022/05/07 14:53:12;;;;;;;;;;;;;;;18.17;33.73;100337.69;5051524;28;859;-53
2022/05/07 14:55:38;;;;;;;;;;;;;;;18.36;34.89;100344.38;5051641;28;905;-54